createdAt,value
2022-09-28T00:01:27.546Z,9.10
2022-09-28T00:03:58.228Z,9.10
2022-09-28T00:06:26.874Z,9.10
2022-09-28T00:08:54.081Z,9.10
2022-09-28T00:11:22.658Z,9.10
2022-09-28T00:13:51.712Z,9.10
2022-09-28T00:16:21.780Z,9.10
2022-09-28T00:18:51.116Z,9.20
2022-09-28T00:21:23.719Z,9.20
2022-09-28T00:24:14.881Z,9.20
2022-09-28T00:26:54.143Z,9.10
2022-09-28T00:29:39.225Z,9.20
2022-09-28T00:32:11.650Z,9.30
2022-09-28T00:34:42.433Z,9.20
2022-09-28T00:37:10.156Z,9.20
2022-09-28T00:39:38.728Z,9.10
2022-09-28T00:42:16.466Z,9.10
2022-09-28T00:44:48.970Z,9.00
2022-09-28T00:47:34.442Z,9.00
2022-09-28T00:50:24.748Z,9.20
2022-09-28T00:53:01.199Z,9.20
2022-09-28T00:55:37.959Z,9.10
2022-09-28T00:58:08.550Z,9.00
2022-09-28T01:00:35.667Z,9.00
2022-09-28T01:03:04.081Z,9.00
2022-09-28T01:05:30.913Z,8.90
2022-09-28T01:07:58.326Z,8.90
2022-09-28T01:10:25.420Z,8.90
2022-09-28T01:12:52.201Z,8.90
2022-09-28T01:15:21.836Z,8.90
2022-09-28T01:17:51.688Z,8.90
2022-09-28T01:20:27.319Z,8.90
2022-09-28T01:23:24.376Z,8.80
2022-09-28T01:26:03.437Z,8.80
2022-09-28T01:28:31.537Z,8.80
2022-09-28T01:31:12.578Z,8.70
2022-09-28T01:33:47.436Z,8.80
2022-09-28T01:36:28.093Z,8.70
2022-09-28T01:39:24.477Z,8.80
2022-09-28T01:41:54.085Z,8.80
2022-09-28T01:44:24.335Z,8.70
2022-09-28T01:46:52.416Z,8.60
2022-09-28T01:49:34.247Z,8.60
2022-09-28T01:52:15.361Z,8.60
2022-09-28T01:54:47.605Z,8.70
2022-09-28T01:57:32.383Z,8.60
2022-09-28T02:00:13.235Z,8.70
2022-09-28T02:02:48.345Z,8.70
2022-09-28T02:05:23.498Z,8.70
2022-09-28T02:08:29.011Z,8.60
2022-09-28T02:11:15.821Z,8.60
2022-09-28T02:14:04.321Z,8.60
2022-09-28T02:16:41.242Z,8.60
2022-09-28T02:19:15.098Z,8.60
2022-09-28T02:21:53.404Z,8.60
2022-09-28T02:24:28.847Z,8.50
2022-09-28T02:27:00.238Z,8.50
2022-09-28T02:29:27.000Z,8.50
2022-09-28T02:31:53.807Z,8.50
2022-09-28T02:34:20.687Z,8.50
2022-09-28T02:36:47.673Z,8.50
2022-09-28T02:39:17.766Z,8.60
2022-09-28T02:41:50.428Z,8.60
2022-09-28T02:44:49.448Z,8.60
2022-09-28T02:47:24.749Z,8.50
2022-09-28T02:50:04.007Z,8.60
2022-09-28T02:52:50.989Z,8.60
2022-09-28T02:55:42.581Z,8.60
2022-09-28T02:58:20.234Z,8.50
2022-09-28T03:01:05.273Z,8.50
2022-09-28T03:04:01.157Z,8.60
2022-09-28T03:06:37.607Z,8.50
2022-09-28T03:09:23.051Z,8.50
2022-09-28T03:11:55.013Z,8.40
2022-09-28T03:14:22.625Z,8.40
2022-09-28T03:16:49.374Z,8.40
2022-09-28T03:19:23.506Z,8.40
2022-09-28T03:21:50.287Z,8.40
2022-09-28T03:24:17.008Z,8.70
2022-09-28T03:26:43.765Z,8.70
2022-09-28T03:29:10.561Z,8.60
2022-09-28T03:31:37.995Z,8.70
2022-09-28T03:34:04.903Z,8.50
2022-09-28T03:36:31.720Z,8.60
2022-09-28T03:38:59.609Z,8.70
2022-09-28T03:41:29.497Z,8.50
2022-09-28T03:43:56.291Z,8.40
2022-09-28T03:46:23.037Z,8.50
2022-09-28T03:48:49.796Z,8.50
2022-09-28T03:51:16.603Z,8.50
2022-09-28T03:53:43.401Z,8.60
2022-09-28T03:56:15.542Z,8.60
2022-09-28T03:58:42.500Z,8.50
2022-09-28T04:01:18.424Z,8.40
2022-09-28T04:03:45.788Z,8.50
2022-09-28T04:06:12.946Z,8.50
2022-09-28T04:08:39.811Z,8.50
2022-09-28T04:11:06.636Z,8.40
2022-09-28T04:13:33.474Z,8.60
2022-09-28T04:16:01.893Z,8.60
2022-09-28T04:18:29.321Z,8.50
2022-09-28T04:21:04.713Z,8.50
2022-09-28T04:23:31.526Z,8.40
2022-09-28T04:25:58.518Z,8.40
2022-09-28T04:28:44.463Z,8.40
2022-09-28T04:31:17.252Z,8.40
2022-09-28T04:33:44.390Z,8.40
2022-09-28T04:36:11.335Z,8.40
2022-09-28T04:38:52.253Z,8.40
2022-09-28T04:41:22.236Z,8.40
2022-09-28T04:43:49.687Z,8.40
2022-09-28T04:46:16.470Z,8.40
2022-09-28T04:48:43.359Z,8.40
2022-09-28T04:51:10.159Z,8.50
2022-09-28T04:53:37.048Z,8.50
2022-09-28T04:56:10.741Z,8.40
2022-09-28T04:58:38.525Z,8.40
2022-09-28T05:01:07.870Z,8.40
2022-09-28T05:03:34.830Z,8.30
2022-09-28T05:06:01.817Z,8.30
2022-09-28T05:08:29.336Z,8.30
2022-09-28T05:11:01.209Z,8.40
2022-09-28T05:13:28.964Z,8.50
2022-09-28T05:15:58.932Z,8.50
2022-09-28T05:18:28.618Z,8.60
2022-09-28T05:20:55.356Z,8.40
2022-09-28T05:23:22.142Z,8.40
2022-09-28T05:25:48.963Z,8.40
2022-09-28T05:28:24.091Z,8.30
2022-09-28T05:30:51.038Z,8.30
2022-09-28T05:33:17.785Z,8.30
2022-09-28T05:35:44.604Z,8.30
2022-09-28T05:38:11.369Z,8.30
2022-09-28T05:40:38.124Z,8.30
2022-09-28T05:43:04.948Z,8.50
2022-09-28T05:45:31.836Z,8.40
2022-09-28T05:47:58.736Z,8.40
2022-09-28T05:50:25.684Z,8.60
2022-09-28T05:53:03.563Z,8.60
2022-09-28T05:55:30.983Z,8.70
2022-09-28T05:57:59.498Z,8.60
2022-09-28T06:00:27.942Z,8.70
2022-09-28T06:03:00.007Z,8.70
2022-09-28T06:05:28.703Z,8.50
2022-09-28T06:07:57.745Z,8.60
2022-09-28T06:10:26.806Z,8.70
2022-09-28T06:12:57.145Z,8.80
2022-09-28T06:15:26.429Z,8.70
2022-09-28T06:18:19.592Z,8.70
2022-09-28T06:20:46.432Z,8.80
2022-09-28T06:23:13.628Z,8.90
2022-09-28T06:25:40.828Z,8.80
2022-09-28T06:28:11.031Z,8.70
2022-09-28T06:30:39.213Z,8.70
2022-09-28T06:33:08.347Z,8.80
2022-09-28T06:35:35.520Z,8.80
2022-09-28T06:38:02.643Z,8.80
2022-09-28T06:40:29.646Z,8.70
2022-09-28T06:43:01.786Z,8.90
2022-09-28T06:45:30.173Z,8.90
2022-09-28T06:48:01.305Z,9.00
2022-09-28T06:50:33.390Z,8.90
2022-09-28T06:53:01.553Z,9.00
2022-09-28T06:55:29.295Z,9.00
2022-09-28T06:58:07.232Z,9.00
2022-09-28T07:00:36.769Z,8.90
2022-09-28T07:03:06.577Z,8.90
2022-09-28T07:05:36.849Z,8.90
2022-09-28T07:08:04.931Z,9.10
2022-09-28T07:10:32.462Z,9.20
2022-09-28T07:13:02.838Z,9.00
2022-09-28T07:15:30.635Z,8.90
2022-09-28T07:18:03.718Z,9.00
2022-09-28T07:20:44.981Z,9.00
2022-09-28T07:23:19.834Z,9.10
2022-09-28T07:25:50.220Z,9.30
2022-09-28T07:28:21.122Z,9.30
2022-09-28T07:30:48.348Z,9.40
2022-09-28T07:33:17.172Z,9.40
2022-09-28T07:35:55.255Z,9.30
2022-09-28T07:38:22.218Z,9.20
2022-09-28T07:41:07.576Z,9.20
2022-09-28T07:43:34.364Z,9.30
2022-09-28T07:46:01.237Z,9.40
2022-09-28T07:48:28.061Z,9.40
2022-09-28T07:50:57.348Z,9.50
2022-09-28T07:53:25.528Z,9.60
2022-09-28T07:56:02.115Z,9.60
2022-09-28T07:58:29.381Z,9.60
2022-09-28T08:00:56.242Z,9.60
2022-09-28T08:03:23.058Z,9.70
2022-09-28T08:05:49.928Z,9.70
2022-09-28T08:08:16.911Z,9.70
2022-09-28T08:10:46.786Z,9.80
2022-09-28T08:13:15.290Z,9.80
2022-09-28T08:15:42.571Z,9.80
2022-09-28T08:18:09.541Z,9.80
2022-09-28T08:20:55.003Z,9.90
2022-09-28T08:23:23.267Z,9.80
2022-09-28T08:25:54.101Z,9.80
2022-09-28T08:28:22.677Z,10.10
2022-09-28T08:30:50.180Z,10.00
2022-09-28T08:33:20.305Z,10.00
2022-09-28T08:35:47.504Z,10.20
2022-09-28T08:38:15.320Z,10.10
2022-09-28T08:41:06.150Z,10.20
2022-09-28T08:43:42.100Z,10.20
2022-09-28T08:46:11.097Z,10.10
2022-09-28T08:49:13.540Z,10.20
2022-09-28T08:52:01.504Z,10.40
2022-09-28T08:54:46.416Z,10.30
2022-09-28T08:57:19.028Z,10.20
2022-09-28T08:59:54.745Z,10.40
2022-09-28T09:02:36.209Z,10.50
2022-09-28T09:05:06.287Z,10.90
2022-09-28T09:07:58.772Z,10.90
2022-09-28T09:10:46.784Z,11.30
2022-09-28T09:13:38.000Z,11.20
2022-09-28T09:16:26.518Z,11.30
2022-09-28T09:19:26.323Z,11.20
2022-09-28T09:22:02.006Z,11.10
2022-09-28T09:24:48.712Z,11.10
2022-09-28T09:27:46.489Z,11.30
2022-09-28T09:30:18.990Z,11.40
2022-09-28T09:33:11.010Z,11.60
2022-09-28T09:36:13.216Z,11.50
2022-09-28T09:38:52.612Z,11.50
2022-09-28T09:41:43.711Z,11.70
2022-09-28T09:44:13.247Z,11.70
2022-09-28T09:46:43.193Z,11.50
2022-09-28T09:49:44.953Z,11.60
2022-09-28T09:52:18.873Z,11.60
2022-09-28T09:54:55.485Z,11.60
2022-09-28T09:57:25.601Z,11.70
2022-09-28T09:59:52.633Z,11.70
2022-09-28T10:02:35.388Z,11.80
2022-09-28T10:05:07.667Z,11.90
2022-09-28T10:07:50.744Z,12.00
2022-09-28T10:10:28.419Z,12.10
2022-09-28T10:12:55.601Z,12.00
2022-09-28T10:15:28.085Z,12.00
2022-09-28T10:17:56.961Z,12.10
2022-09-28T10:20:25.621Z,12.20
2022-09-28T10:22:56.192Z,12.30
2022-09-28T10:25:23.882Z,12.60
2022-09-28T10:27:52.703Z,12.70
2022-09-28T10:30:25.779Z,12.80
2022-09-28T10:32:55.185Z,12.70
2022-09-28T10:35:28.097Z,12.40
2022-09-28T10:38:03.321Z,12.30
2022-09-28T10:40:44.744Z,12.40
2022-09-28T10:43:33.754Z,12.70
2022-09-28T10:46:07.226Z,12.50
2022-09-28T10:48:46.007Z,12.40
2022-09-28T10:51:12.766Z,12.30
2022-09-28T10:53:39.949Z,12.30
2022-09-28T10:56:19.148Z,12.40
2022-09-28T10:58:45.959Z,12.30
2022-09-28T11:01:19.120Z,12.50
2022-09-28T11:03:52.683Z,12.60
2022-09-28T11:06:31.605Z,12.90
2022-09-28T11:09:01.713Z,13.40
2022-09-28T11:11:29.680Z,13.00
2022-09-28T11:14:01.121Z,12.80
2022-09-28T11:16:33.991Z,12.60
2022-09-28T11:19:27.519Z,12.60
2022-09-28T11:21:54.168Z,12.50
2022-09-28T11:24:24.510Z,12.60
2022-09-28T11:26:56.570Z,12.70
2022-09-28T11:29:32.480Z,13.10
2022-09-28T11:32:01.573Z,13.50
2022-09-28T11:34:58.667Z,13.80
2022-09-28T11:37:37.494Z,13.70
2022-09-28T11:40:16.636Z,13.70
2022-09-28T11:43:03.735Z,13.30
2022-09-28T11:45:57.904Z,13.20
2022-09-28T11:48:32.930Z,13.20
2022-09-28T11:51:08.418Z,13.30
2022-09-28T11:53:43.026Z,13.20
2022-09-28T11:56:34.117Z,13.10
2022-09-28T11:59:17.079Z,12.90
2022-09-28T12:01:47.091Z,12.90
2022-09-28T12:04:25.694Z,13.00
2022-09-28T12:06:59.590Z,13.00
2022-09-28T12:09:38.257Z,12.90
2022-09-28T12:12:21.632Z,12.90
2022-09-28T12:14:50.494Z,12.90
2022-09-28T12:17:30.775Z,12.80
2022-09-28T12:20:03.835Z,12.70
2022-09-28T12:22:33.312Z,12.70
2022-09-28T12:25:01.939Z,12.70
2022-09-28T12:27:36.317Z,12.70
2022-09-28T12:30:05.301Z,12.80
2022-09-28T12:32:53.009Z,12.80
2022-09-28T12:36:07.803Z,12.80
2022-09-28T12:38:54.090Z,12.90
2022-09-28T12:42:01.558Z,12.90
2022-09-28T12:44:59.384Z,12.90
2022-09-28T12:47:47.410Z,12.90
2022-09-28T12:50:38.022Z,13.00
2022-09-28T12:53:27.308Z,12.90
2022-09-28T12:56:02.207Z,12.80
2022-09-28T12:59:04.029Z,12.80
2022-09-28T13:01:44.785Z,12.80
2022-09-28T13:04:38.328Z,12.70
2022-09-28T13:07:05.090Z,12.70
2022-09-28T13:09:47.613Z,12.80
2022-09-28T13:12:32.632Z,12.60
2022-09-28T13:15:17.696Z,12.50
2022-09-28T13:17:47.403Z,12.70
2022-09-28T13:20:20.134Z,12.80
2022-09-28T13:23:17.593Z,12.70
2022-09-28T13:26:13.924Z,12.70
2022-09-28T13:28:43.337Z,12.80
2022-09-28T13:31:11.228Z,12.80
2022-09-28T13:33:44.575Z,12.90
2022-09-28T13:36:26.569Z,12.60
2022-09-28T13:38:54.751Z,12.80
2022-09-28T13:41:29.801Z,12.80
2022-09-28T13:44:20.276Z,12.70
2022-09-28T13:47:05.605Z,12.90
2022-09-28T13:49:45.577Z,12.80
2022-09-28T13:52:44.281Z,12.90
2022-09-28T13:55:32.994Z,13.00
2022-09-28T13:58:05.624Z,12.90
2022-09-28T14:00:53.258Z,12.90
2022-09-28T14:03:38.650Z,12.70
2022-09-28T14:06:25.385Z,12.60
2022-09-28T14:09:13.963Z,12.50
2022-09-28T14:11:56.254Z,12.70
2022-09-28T14:14:33.177Z,12.90
2022-09-28T14:17:19.065Z,12.70
2022-09-28T14:19:51.933Z,12.60
2022-09-28T14:22:26.138Z,12.80
2022-09-28T14:25:04.859Z,12.90
2022-09-28T14:28:05.413Z,12.90
2022-09-28T14:30:38.287Z,12.80
2022-09-28T14:33:27.313Z,12.90
2022-09-28T14:36:08.554Z,13.10
2022-09-28T14:39:03.271Z,13.20
2022-09-28T14:41:34.844Z,13.20
2022-09-28T14:44:02.590Z,13.20
2022-09-28T14:46:38.069Z,13.50
2022-09-28T14:49:20.175Z,13.90
2022-09-28T14:51:53.021Z,14.20
2022-09-28T14:54:22.159Z,14.00
2022-09-28T14:56:57.502Z,14.00
2022-09-28T14:59:26.856Z,14.00
2022-09-28T15:02:01.299Z,13.60
2022-09-28T15:04:30.702Z,13.40
2022-09-28T15:06:58.116Z,13.50
2022-09-28T15:09:39.185Z,13.30
2022-09-28T15:12:20.331Z,13.40
2022-09-28T15:15:02.345Z,13.30
2022-09-28T15:17:30.720Z,13.50
2022-09-28T15:20:08.724Z,13.40
2022-09-28T15:22:36.814Z,13.40
2022-09-28T15:25:13.651Z,13.40
2022-09-28T15:27:41.407Z,13.50
2022-09-28T15:30:25.482Z,13.70
2022-09-28T15:32:56.633Z,13.70
2022-09-28T15:35:27.656Z,13.60
2022-09-28T15:37:55.533Z,13.40
2022-09-28T15:40:35.173Z,13.30
2022-09-28T15:43:19.781Z,13.40
2022-09-28T15:46:04.337Z,13.40
2022-09-28T15:48:56.618Z,13.30
2022-09-28T15:51:24.568Z,13.30
2022-09-28T15:53:58.327Z,13.30
2022-09-28T15:56:26.709Z,13.40
2022-09-28T15:59:12.938Z,13.20
2022-09-28T16:01:45.925Z,13.30
2022-09-28T16:04:31.571Z,13.10
2022-09-28T16:07:10.631Z,13.00
2022-09-28T16:10:12.803Z,13.00
2022-09-28T16:12:42.668Z,13.10
2022-09-28T16:15:20.377Z,13.20
2022-09-28T16:18:18.999Z,13.10
2022-09-28T16:20:50.125Z,13.00
2022-09-28T16:23:16.851Z,12.90
2022-09-28T16:26:05.314Z,12.80
2022-09-28T16:28:37.618Z,12.40
2022-09-28T16:31:27.225Z,12.40
2022-09-28T16:34:01.269Z,12.30
2022-09-28T16:36:38.992Z,12.20
2022-09-28T16:39:05.751Z,12.10
2022-09-28T16:41:32.488Z,11.80
2022-09-28T16:44:02.173Z,11.80
2022-09-28T16:46:36.366Z,11.80
2022-09-28T16:49:05.924Z,11.50
2022-09-28T16:51:33.584Z,11.30
2022-09-28T16:54:33.970Z,11.20
2022-09-28T16:57:01.649Z,11.30
2022-09-28T16:59:29.053Z,11.20
2022-09-28T17:01:58.973Z,11.20
2022-09-28T17:04:26.651Z,11.20
2022-09-28T17:06:55.278Z,11.10
2022-09-28T17:09:22.539Z,11.10
2022-09-28T17:11:56.057Z,11.10
2022-09-28T17:14:23.979Z,11.00
2022-09-28T17:17:12.657Z,11.20
2022-09-28T17:19:41.155Z,11.10
2022-09-28T17:22:09.315Z,11.00
2022-09-28T17:24:36.377Z,11.10
2022-09-28T17:27:03.612Z,11.00
2022-09-28T17:29:30.701Z,11.00
2022-09-28T17:31:57.493Z,11.20
2022-09-28T17:34:24.260Z,11.00
2022-09-28T17:36:52.182Z,11.10
2022-09-28T17:39:19.354Z,11.10
2022-09-28T17:41:46.667Z,11.00
2022-09-28T17:44:15.875Z,10.90
2022-09-28T17:46:49.232Z,10.90
2022-09-28T17:49:16.928Z,10.90
2022-09-28T17:51:43.793Z,10.90
2022-09-28T17:54:10.880Z,11.00
2022-09-28T17:56:37.799Z,11.10
2022-09-28T17:59:12.540Z,11.10
2022-09-28T18:01:40.193Z,11.00
2022-09-28T18:04:09.044Z,11.00
2022-09-28T18:06:37.281Z,11.00
2022-09-28T18:09:05.721Z,11.00
2022-09-28T18:11:33.912Z,10.90
2022-09-28T18:14:01.084Z,10.90
2022-09-28T18:16:28.955Z,10.80
2022-09-28T18:18:56.227Z,10.80
2022-09-28T18:21:23.118Z,10.80
2022-09-28T18:23:50.014Z,10.80
2022-09-28T18:26:19.644Z,10.80
2022-09-28T18:28:47.095Z,10.80
2022-09-28T18:31:15.748Z,10.80
2022-09-28T18:33:43.399Z,10.80
2022-09-28T18:36:10.735Z,10.80
2022-09-28T18:38:38.371Z,10.80
2022-09-28T18:41:16.667Z,10.70
2022-09-28T18:43:49.223Z,10.70
2022-09-28T18:46:18.319Z,10.70
2022-09-28T18:48:47.263Z,10.60
2022-09-28T18:51:14.277Z,10.60
2022-09-28T18:53:41.277Z,10.60
2022-09-28T18:56:14.735Z,10.50
2022-09-28T18:58:42.685Z,10.50
2022-09-28T19:04:03.888Z,10.40
2022-09-28T19:06:31.802Z,10.40
2022-09-28T19:08:59.300Z,10.40
2022-09-28T19:11:26.807Z,10.30
2022-09-28T19:13:54.756Z,10.30
2022-09-28T19:16:30.030Z,10.20
2022-09-28T19:19:03.070Z,10.20
2022-09-28T19:21:29.901Z,10.10
2022-09-28T19:23:56.789Z,10.00
2022-09-28T19:26:27.531Z,10.10
2022-09-28T19:28:56.397Z,10.00
2022-09-28T19:31:24.257Z,10.00
2022-09-28T19:33:51.046Z,10.00
2022-09-28T19:36:23.664Z,10.10
2022-09-28T19:38:51.819Z,10.10
2022-09-28T19:41:44.190Z,10.20
2022-09-28T19:44:27.500Z,10.10
2022-09-28T19:47:06.928Z,10.10
2022-09-28T19:49:38.165Z,10.10
2022-09-28T19:52:16.542Z,10.10
2022-09-28T19:54:56.759Z,10.00
2022-09-28T19:57:25.940Z,10.00
2022-09-28T19:59:55.800Z,10.00
2022-09-28T20:02:24.886Z,10.00
2022-09-28T20:04:51.653Z,10.00
2022-09-28T20:07:18.871Z,10.00
2022-09-28T20:09:45.627Z,10.00
2022-09-28T20:12:12.462Z,9.90
2022-09-28T20:14:40.464Z,9.90
2022-09-28T20:17:07.728Z,9.90
2022-09-28T20:19:35.033Z,10.00
2022-09-28T20:22:03.279Z,9.90
2022-09-28T20:24:31.303Z,9.90
2022-09-28T20:26:58.337Z,9.90
2022-09-28T20:29:25.293Z,9.90
2022-09-28T20:31:52.247Z,9.90
2022-09-28T20:34:19.391Z,9.90
2022-09-28T20:36:46.418Z,10.00
2022-09-28T20:39:13.542Z,9.90
2022-09-28T20:41:41.134Z,9.90
2022-09-28T20:44:08.129Z,9.80
2022-09-28T20:46:35.892Z,9.70
2022-09-28T20:49:03.266Z,9.70
2022-09-28T20:51:30.198Z,9.60
2022-09-28T20:53:58.262Z,9.80
2022-09-28T20:56:31.077Z,9.80
2022-09-28T20:58:57.844Z,9.70
2022-09-28T21:01:30.280Z,9.80
2022-09-28T21:04:01.930Z,9.70
2022-09-28T21:06:39.578Z,9.70
2022-09-28T21:09:07.987Z,9.70
2022-09-28T21:11:35.712Z,9.70
2022-09-28T21:14:04.529Z,9.60
2022-09-28T21:16:33.631Z,9.60
2022-09-28T21:19:00.528Z,9.60
2022-09-28T21:21:27.538Z,9.60
2022-09-28T21:23:58.401Z,9.60
2022-09-28T21:26:27.233Z,9.60
2022-09-28T21:29:06.279Z,9.60
2022-09-28T21:31:47.516Z,9.60
2022-09-28T21:34:21.446Z,9.60
